createdAt,value
2023-09-24T00:02:23.432Z,5.25
2023-09-24T00:04:50.020Z,4.95
2023-09-24T00:07:16.602Z,4.43
2023-09-24T00:09:43.221Z,4.43
2023-09-24T00:12:09.766Z,4.22
2023-09-24T00:14:36.406Z,4.95
2023-09-24T00:17:02.992Z,3.95
2023-09-24T00:19:29.539Z,4.22
2023-09-24T00:21:56.094Z,3.80
2023-09-24T00:24:22.574Z,4.10
2023-09-24T00:26:49.094Z,4.57
2023-09-24T00:29:15.718Z,4.40
2023-09-24T00:31:42.238Z,4.13
2023-09-24T00:34:09.505Z,4.20
2023-09-24T00:36:36.759Z,3.80
2023-09-24T00:39:03.723Z,4.30
2023-09-24T00:41:30.452Z,4.03
2023-09-24T00:43:58.986Z,3.90
2023-09-24T00:46:26.703Z,4.07
2023-09-24T00:48:55.471Z,4.50
2023-09-24T00:51:24.055Z,4.32
2023-09-24T00:53:55.611Z,4.13
2023-09-24T00:56:23.021Z,3.42
2023-09-24T00:58:52.062Z,3.97
2023-09-24T01:01:18.934Z,3.63
2023-09-24T01:03:48.548Z,3.63
2023-09-24T01:06:15.975Z,4.10
2023-09-24T01:08:43.846Z,3.50
2023-09-24T01:11:10.981Z,3.92
2023-09-24T01:13:45.674Z,3.28
2023-09-24T01:16:12.844Z,4.03
2023-09-24T01:18:41.204Z,3.67
2023-09-24T01:21:16.483Z,3.70
2023-09-24T01:23:47.188Z,3.75
2023-09-24T01:26:14.725Z,3.60
2023-09-24T01:28:42.000Z,3.65
2023-09-24T01:31:09.408Z,3.80
2023-09-24T01:33:39.911Z,4.15
2023-09-24T01:36:10.354Z,4.10
2023-09-24T01:38:41.570Z,3.80
2023-09-24T01:41:12.281Z,3.50
2023-09-24T01:43:47.075Z,3.63
2023-09-24T01:46:15.644Z,3.72
2023-09-24T01:48:44.734Z,3.92
2023-09-24T01:51:12.184Z,3.53
2023-09-24T01:53:40.259Z,3.80
2023-09-24T01:56:07.312Z,3.63
2023-09-24T01:58:34.050Z,4.05
2023-09-24T02:01:03.448Z,3.50
2023-09-24T02:03:31.036Z,3.45
2023-09-24T02:05:58.684Z,3.60
2023-09-24T02:08:25.323Z,4.47
2023-09-24T02:10:51.948Z,3.50
2023-09-24T02:13:21.515Z,3.78
2023-09-24T02:15:49.580Z,3.70
2023-09-24T02:18:17.464Z,3.25
2023-09-24T02:20:48.301Z,3.80
2023-09-24T02:23:17.783Z,3.65
2023-09-24T02:25:46.581Z,3.60
2023-09-24T02:28:15.179Z,3.90
2023-09-24T02:30:41.968Z,3.70
2023-09-24T02:33:08.998Z,4.22
2023-09-24T02:35:36.448Z,4.22
2023-09-24T02:38:05.855Z,4.25
2023-09-24T02:40:33.128Z,4.13
2023-09-24T02:43:01.924Z,4.20
2023-09-24T02:45:30.871Z,3.92
2023-09-24T02:47:58.280Z,4.43
2023-09-24T02:50:27.125Z,4.40
2023-09-24T02:52:58.574Z,4.72
2023-09-24T02:55:25.946Z,4.40
2023-09-24T02:57:52.673Z,4.63
2023-09-24T03:00:22.317Z,4.40
2023-09-24T03:02:49.723Z,4.00
2023-09-24T03:10:15.542Z,4.20
2023-09-24T03:12:42.102Z,3.88
2023-09-24T03:15:11.420Z,4.22
2023-09-24T03:17:42.136Z,4.30
2023-09-24T03:20:16.417Z,4.55
2023-09-24T03:22:49.707Z,4.50
2023-09-24T03:25:21.578Z,4.03
2023-09-24T03:27:49.746Z,4.13
2023-09-24T03:30:18.648Z,4.15
2023-09-24T03:32:46.859Z,4.25
2023-09-24T03:35:14.936Z,4.53
2023-09-24T03:37:44.893Z,4.00
2023-09-24T03:40:13.698Z,4.82
2023-09-24T03:42:40.776Z,4.90
2023-09-24T03:45:09.848Z,5.03
2023-09-24T03:47:37.614Z,4.25
2023-09-24T03:50:05.519Z,4.45
2023-09-24T03:52:32.145Z,4.68
2023-09-24T03:55:00.866Z,4.55
2023-09-24T03:57:30.944Z,4.40
2023-09-24T03:59:58.904Z,4.60
2023-09-24T04:02:27.970Z,4.80
2023-09-24T04:04:54.767Z,4.40
2023-09-24T04:07:21.893Z,4.53
2023-09-24T04:09:51.741Z,4.13
2023-09-24T04:12:18.411Z,4.60
2023-09-24T04:14:44.971Z,4.43
2023-09-24T04:17:11.477Z,4.50
2023-09-24T04:19:38.057Z,4.53
2023-09-24T04:22:04.976Z,4.88
2023-09-24T04:24:31.441Z,4.15
2023-09-24T04:26:58.042Z,4.75
2023-09-24T04:29:24.881Z,4.70
2023-09-24T04:31:51.658Z,4.03
2023-09-24T04:34:20.937Z,4.85
2023-09-24T04:36:49.339Z,4.13
2023-09-24T04:39:16.530Z,4.60
2023-09-24T04:41:44.491Z,4.50
2023-09-24T04:44:11.047Z,4.45
2023-09-24T04:46:37.703Z,4.75
2023-09-24T04:49:06.254Z,4.78
2023-09-24T04:51:35.891Z,4.38
2023-09-24T04:54:03.681Z,4.25
2023-09-24T04:56:30.918Z,4.25
2023-09-24T04:58:57.619Z,4.18
2023-09-24T05:01:24.259Z,4.25
2023-09-24T05:03:52.406Z,4.22
2023-09-24T05:06:20.101Z,4.15
2023-09-24T05:08:47.741Z,3.55
2023-09-24T05:11:14.696Z,3.80
2023-09-24T05:13:45.405Z,4.20
2023-09-24T05:16:12.354Z,3.67
2023-09-24T05:18:39.031Z,3.70
2023-09-24T05:21:14.516Z,3.40
2023-09-24T05:23:41.068Z,3.47
2023-09-24T05:26:14.584Z,3.40
2023-09-24T05:28:41.973Z,3.20
2023-09-24T05:31:09.011Z,3.22
2023-09-24T05:33:35.656Z,3.22
2023-09-24T05:36:02.639Z,3.13
2023-09-24T05:38:30.820Z,2.85
2023-09-24T05:40:58.442Z,2.70
2023-09-24T05:43:25.090Z,2.97
2023-09-24T05:45:51.769Z,2.85
2023-09-24T05:48:20.323Z,2.70
2023-09-24T05:50:47.891Z,2.67
2023-09-24T05:53:15.668Z,2.78
2023-09-24T05:55:53.295Z,2.63
2023-09-24T05:58:22.042Z,2.80
2023-09-24T06:00:48.696Z,3.05
2023-09-24T06:03:15.848Z,2.55
2023-09-24T06:05:42.584Z,2.75
2023-09-24T06:08:09.274Z,2.67
2023-09-24T06:10:38.793Z,2.35
2023-09-24T06:13:05.303Z,2.45
2023-09-24T06:15:31.898Z,2.50
2023-09-24T06:17:58.874Z,2.53
2023-09-24T06:20:26.353Z,2.42
2023-09-24T06:22:54.843Z,2.30
2023-09-24T06:25:21.791Z,2.33
2023-09-24T06:27:48.392Z,2.58
2023-09-24T06:30:15.487Z,2.28
2023-09-24T06:32:42.131Z,2.40
2023-09-24T06:35:09.117Z,2.65
2023-09-24T06:37:35.662Z,2.30
2023-09-24T06:40:02.223Z,2.17
2023-09-24T06:42:28.749Z,2.15
2023-09-24T06:44:55.415Z,2.13
2023-09-24T06:47:22.227Z,2.17
2023-09-24T06:49:50.702Z,2.22
2023-09-24T06:52:17.784Z,2.15
2023-09-24T06:54:44.726Z,2.47
2023-09-24T06:57:11.319Z,2.35
2023-09-24T06:59:37.899Z,2.33
2023-09-24T07:02:04.445Z,2.75
2023-09-24T07:04:31.098Z,2.30
2023-09-24T07:06:57.875Z,3.03
2023-09-24T07:09:24.382Z,2.75
2023-09-24T07:11:51.283Z,2.67
2023-09-24T07:14:20.297Z,2.55
2023-09-24T07:16:48.411Z,2.40
2023-09-24T07:19:14.967Z,2.53
2023-09-24T07:21:41.673Z,2.10
2023-09-24T07:24:09.627Z,2.08
2023-09-24T07:26:36.360Z,2.13
2023-09-24T07:29:03.016Z,2.40
2023-09-24T07:31:31.854Z,2.20
2023-09-24T07:34:00.866Z,2.30
2023-09-24T07:36:33.937Z,2.30
2023-09-24T07:39:05.778Z,2.08
2023-09-24T07:41:32.560Z,2.17
2023-09-24T07:43:59.111Z,2.60
2023-09-24T07:46:25.613Z,2.33
2023-09-24T07:48:52.251Z,2.38
2023-09-24T07:51:18.861Z,2.38
2023-09-24T07:53:48.964Z,2.20
2023-09-24T07:56:15.744Z,1.90
2023-09-24T07:58:43.392Z,1.42
2023-09-24T08:01:11.944Z,1.42
2023-09-24T08:03:39.221Z,1.60
2023-09-24T08:06:07.008Z,1.40
2023-09-24T08:08:49.900Z,1.00
2023-09-24T08:11:18.594Z,1.92
2023-09-24T08:13:45.428Z,0.70
2023-09-24T08:16:12.270Z,0.77
2023-09-24T08:18:39.060Z,0.90
2023-09-24T08:21:05.942Z,0.70
2023-09-24T08:23:33.002Z,0.65
2023-09-24T08:26:00.696Z,0.50
2023-09-24T08:28:27.276Z,0.50
2023-09-24T08:30:54.303Z,0.60
2023-09-24T08:33:20.900Z,0.60
2023-09-24T08:35:47.704Z,0.60
2023-09-24T08:38:17.214Z,0.88
2023-09-24T08:40:43.807Z,0.57
2023-09-24T08:43:15.708Z,0.80
2023-09-24T08:45:43.024Z,0.70
2023-09-24T08:48:10.450Z,0.73
2023-09-24T08:50:43.127Z,0.68
2023-09-24T08:53:14.084Z,0.80
2023-09-24T08:55:48.072Z,0.70
2023-09-24T08:58:14.640Z,0.80
2023-09-24T09:00:43.430Z,0.93
2023-09-24T09:03:10.310Z,0.98
2023-09-24T09:05:39.977Z,0.88
2023-09-24T09:08:06.846Z,1.00
2023-09-24T09:10:35.310Z,1.00
2023-09-24T09:13:09.953Z,0.90
2023-09-24T09:15:39.078Z,0.82
2023-09-24T09:18:06.087Z,0.80
2023-09-24T09:20:45.694Z,0.75
2023-09-24T09:25:51.438Z,0.90
2023-09-24T09:28:24.785Z,1.00
2023-09-24T09:31:06.869Z,0.88
2023-09-24T09:33:38.859Z,1.10
2023-09-24T09:36:05.860Z,0.90
2023-09-24T09:38:32.452Z,1.00
2023-09-24T09:41:00.009Z,0.98
2023-09-24T09:43:29.097Z,1.08
2023-09-24T09:45:56.614Z,1.50
2023-09-24T09:48:28.735Z,1.30
2023-09-24T09:51:00.870Z,1.30
2023-09-24T09:53:32.287Z,1.20
2023-09-24T09:56:05.878Z,0.95
2023-09-24T09:58:37.566Z,0.90
2023-09-24T10:01:08.786Z,0.80
2023-09-24T10:03:42.483Z,0.95
2023-09-24T10:06:11.387Z,0.85
2023-09-24T10:08:43.033Z,0.60
2023-09-24T10:11:12.102Z,0.90
2023-09-24T10:13:47.410Z,0.80
2023-09-24T10:16:37.091Z,0.82
2023-09-24T10:19:09.445Z,0.88
2023-09-24T10:21:44.328Z,0.70
2023-09-24T10:24:11.000Z,0.60
2023-09-24T10:27:02.627Z,0.70
2023-09-24T10:29:47.464Z,0.90
2023-09-24T10:32:15.527Z,1.10
2023-09-24T10:34:58.804Z,0.82
2023-09-24T10:37:26.107Z,0.52
2023-09-24T10:40:14.704Z,0.70
2023-09-24T10:42:45.647Z,0.77
2023-09-24T10:45:13.297Z,0.60
2023-09-24T10:47:44.380Z,0.80
2023-09-24T10:50:19.017Z,0.70
2023-09-24T10:53:00.065Z,0.60
2023-09-24T10:55:34.698Z,0.80
2023-09-24T10:58:05.100Z,0.60
2023-09-24T11:00:33.284Z,0.63
2023-09-24T11:03:02.476Z,0.98
2023-09-24T11:05:30.631Z,0.60
2023-09-24T11:07:57.987Z,0.60
2023-09-24T11:10:26.605Z,0.82
2023-09-24T11:12:55.132Z,0.80
2023-09-24T11:15:24.382Z,0.63
2023-09-24T11:17:52.224Z,0.70
2023-09-24T11:20:22.079Z,0.82
2023-09-24T11:23:10.282Z,0.63
2023-09-24T11:25:37.671Z,0.70
2023-09-24T11:28:06.048Z,0.70
2023-09-24T11:30:46.718Z,0.60
2023-09-24T11:33:21.964Z,0.60
2023-09-24T11:35:52.618Z,0.70
2023-09-24T11:38:35.574Z,0.65
2023-09-24T11:41:14.087Z,0.60
2023-09-24T11:43:42.150Z,1.40
2023-09-24T11:46:27.040Z,1.30
2023-09-24T11:48:54.193Z,1.20
2023-09-24T11:51:24.364Z,1.15
2023-09-24T11:53:51.619Z,1.30
2023-09-24T11:56:18.399Z,0.93
2023-09-24T11:58:44.993Z,0.90
2023-09-24T12:01:13.473Z,1.00
2023-09-24T12:03:41.067Z,0.85
2023-09-24T12:06:08.295Z,0.60
2023-09-24T12:08:36.507Z,0.57
2023-09-24T12:11:03.162Z,0.75
2023-09-24T12:13:31.036Z,0.60
2023-09-24T12:15:57.660Z,0.70
2023-09-24T12:18:24.356Z,0.63
2023-09-24T12:20:51.009Z,0.75
2023-09-24T12:23:18.010Z,0.88
2023-09-24T12:25:45.144Z,0.73
2023-09-24T12:28:15.171Z,0.70
2023-09-24T12:30:42.058Z,0.60
2023-09-24T12:33:12.922Z,0.80
2023-09-24T12:35:42.006Z,0.70
2023-09-24T12:38:09.916Z,0.60
2023-09-24T12:40:36.565Z,0.65
2023-09-24T12:43:03.655Z,0.70
2023-09-24T12:45:30.266Z,0.80
2023-09-24T12:47:56.876Z,0.80
2023-09-24T12:50:23.482Z,0.70
2023-09-24T12:52:50.029Z,0.57
2023-09-24T12:55:17.909Z,0.90
2023-09-24T12:57:46.436Z,0.80
2023-09-24T13:00:14.108Z,0.70
2023-09-24T13:02:45.342Z,0.88
2023-09-24T13:05:19.013Z,0.70
2023-09-24T13:07:47.570Z,0.80
2023-09-24T13:10:16.355Z,0.80
2023-09-24T13:12:44.568Z,0.90
2023-09-24T13:15:12.311Z,0.70
2023-09-24T13:17:39.714Z,0.93
2023-09-24T13:22:34.101Z,0.60
2023-09-24T13:27:27.255Z,0.90
2023-09-24T13:29:54.136Z,0.95
2023-09-24T13:32:22.250Z,0.90
2023-09-24T13:34:49.171Z,0.80
2023-09-24T13:37:15.759Z,1.10
2023-09-24T13:39:42.823Z,1.20
2023-09-24T13:42:09.420Z,1.42
2023-09-24T13:44:36.414Z,1.20
2023-09-24T13:47:03.108Z,0.85
2023-09-24T13:49:29.713Z,1.00
2023-09-24T13:51:56.193Z,0.95
2023-09-24T13:54:22.836Z,1.02
2023-09-24T13:56:49.405Z,1.00
2023-09-24T13:59:16.105Z,1.10
2023-09-24T14:01:42.668Z,1.10
2023-09-24T14:04:09.351Z,1.20
2023-09-24T14:06:36.047Z,0.90
2023-09-24T14:09:21.143Z,1.00
2023-09-24T14:12:06.333Z,0.90
2023-09-24T14:14:32.909Z,0.90
2023-09-24T14:16:59.434Z,0.85
2023-09-24T14:19:25.924Z,0.65
2023-09-24T14:21:52.465Z,0.70
2023-09-24T14:24:18.961Z,0.90
2023-09-24T14:26:45.608Z,0.70
2023-09-24T14:29:12.110Z,0.75
2023-09-24T14:31:38.774Z,0.80
2023-09-24T14:34:05.343Z,0.68
2023-09-24T14:36:31.928Z,0.63
2023-09-24T14:39:01.071Z,0.70
2023-09-24T14:41:27.858Z,0.68
2023-09-24T14:43:54.407Z,0.70
2023-09-24T14:46:21.328Z,0.77
2023-09-24T14:48:48.120Z,0.77
2023-09-24T14:51:18.994Z,0.52
2023-09-24T14:53:46.170Z,0.90
2023-09-24T14:56:19.715Z,0.65
2023-09-24T14:58:46.300Z,0.85
2023-09-24T15:01:12.926Z,1.05
2023-09-24T15:03:39.931Z,0.93
2023-09-24T15:06:06.531Z,0.70
2023-09-24T15:08:34.041Z,0.90
2023-09-24T15:13:31.652Z,0.80
2023-09-24T15:15:58.192Z,0.90
2023-09-24T15:18:24.929Z,1.10
2023-09-24T15:20:52.329Z,0.90
2023-09-24T15:25:46.731Z,0.98
2023-09-24T15:28:14.212Z,1.20
2023-09-24T15:33:11.147Z,1.20
2023-09-24T15:38:07.936Z,1.20
2023-09-24T15:40:36.071Z,1.23
2023-09-24T15:43:07.384Z,1.40
2023-09-24T15:45:34.715Z,1.27
2023-09-24T15:48:04.925Z,1.20
2023-09-24T15:50:33.325Z,1.55
2023-09-24T15:53:00.356Z,1.00
2023-09-24T15:55:27.043Z,1.10
2023-09-24T15:57:53.574Z,1.23
2023-09-24T16:00:20.738Z,0.95
2023-09-24T16:02:47.622Z,1.08
2023-09-24T16:05:14.943Z,1.25
2023-09-24T16:07:41.895Z,1.30
2023-09-24T16:10:09.236Z,1.00
2023-09-24T16:12:36.354Z,1.20
2023-09-24T16:15:03.047Z,1.10
2023-09-24T16:17:30.963Z,1.15
2023-09-24T16:19:57.866Z,1.30
2023-09-24T16:22:24.662Z,0.98
2023-09-24T16:24:54.942Z,1.10
2023-09-24T16:27:23.195Z,1.20
2023-09-24T16:29:51.688Z,1.15
2023-09-24T16:32:19.474Z,1.20
2023-09-24T16:34:46.906Z,1.20
2023-09-24T16:37:13.531Z,1.10
2023-09-24T16:39:40.250Z,1.63
2023-09-24T16:42:07.058Z,1.50
2023-09-24T16:44:34.092Z,1.70
2023-09-24T16:47:02.424Z,1.40
2023-09-24T16:49:31.283Z,1.27
2023-09-24T16:51:58.489Z,1.60
2023-09-24T16:54:27.193Z,1.40
2023-09-24T16:56:54.408Z,1.23
2023-09-24T16:59:21.474Z,1.50
2023-09-24T17:01:48.924Z,1.60
2023-09-24T17:06:42.452Z,1.40
2023-09-24T17:09:10.572Z,1.65
2023-09-24T17:11:37.396Z,1.50
2023-09-24T17:14:04.183Z,1.55
2023-09-24T17:16:31.055Z,1.30
2023-09-24T17:18:57.655Z,1.67
2023-09-24T17:21:24.523Z,1.45
2023-09-24T17:23:51.375Z,1.58
2023-09-24T17:26:19.354Z,1.60
2023-09-24T17:28:45.913Z,1.70
2023-09-24T17:31:13.450Z,1.80
2023-09-24T17:33:40.953Z,1.60
2023-09-24T17:38:38.256Z,1.50
2023-09-24T17:43:31.603Z,1.75
2023-09-24T17:46:08.232Z,1.65
2023-09-24T17:48:38.721Z,1.52
2023-09-24T17:51:07.510Z,1.90
2023-09-24T17:53:34.883Z,1.80
2023-09-24T17:56:03.226Z,1.70
2023-09-24T17:58:30.131Z,1.70
2023-09-24T18:01:15.858Z,4.72
2023-09-24T18:03:44.805Z,2.00
2023-09-24T18:06:12.773Z,1.52
2023-09-24T18:08:39.586Z,1.80
2023-09-24T18:11:06.309Z,1.92
2023-09-24T18:13:33.282Z,1.80
2023-09-24T18:16:00.991Z,1.70
2023-09-24T18:18:29.072Z,2.00
2023-09-24T18:20:57.969Z,1.70
2023-09-24T18:23:25.652Z,1.80
2023-09-24T18:28:19.579Z,1.40
2023-09-24T18:30:47.228Z,1.90
2023-09-24T18:33:14.563Z,1.38
2023-09-24T18:35:42.708Z,1.70
2023-09-24T18:38:10.289Z,1.80
2023-09-24T18:43:07.411Z,1.70
2023-09-24T18:45:35.228Z,1.50
2023-09-24T18:48:02.216Z,1.90
2023-09-24T18:50:29.845Z,1.73
2023-09-24T18:52:56.738Z,1.92
2023-09-24T18:57:50.367Z,1.80
2023-09-24T19:00:16.988Z,1.70
2023-09-24T19:02:48.990Z,1.55
2023-09-24T19:05:17.228Z,1.90
2023-09-24T19:07:44.274Z,2.13
2023-09-24T19:10:15.578Z,1.63
2023-09-24T19:12:48.732Z,1.80
2023-09-24T19:15:17.113Z,1.50
2023-09-24T19:17:44.849Z,1.60
2023-09-24T19:20:12.141Z,1.70
2023-09-24T19:22:38.794Z,1.80
2023-09-24T19:25:05.723Z,1.77
2023-09-24T19:27:32.324Z,1.92
2023-09-24T19:29:59.951Z,1.48
2023-09-24T19:32:27.514Z,1.50
2023-09-24T19:34:54.566Z,1.35
2023-09-24T19:37:21.212Z,1.48
2023-09-24T19:39:47.850Z,1.35
2023-09-24T19:42:14.464Z,1.45
2023-09-24T19:44:41.165Z,1.60
2023-09-24T19:47:07.872Z,1.20
2023-09-24T19:49:34.531Z,1.23
2023-09-24T19:52:01.041Z,1.38
2023-09-24T19:54:29.239Z,1.30
2023-09-24T19:56:56.197Z,1.20
2023-09-24T19:59:22.833Z,1.40
2023-09-24T20:01:49.306Z,1.48
2023-09-24T20:04:15.869Z,1.40
2023-09-24T20:06:42.783Z,1.20
2023-09-24T20:09:10.762Z,1.35
2023-09-24T20:11:40.356Z,1.10
2023-09-24T20:14:09.669Z,1.30
2023-09-24T20:16:36.284Z,1.67
2023-09-24T20:19:05.254Z,1.30
2023-09-24T20:21:33.152Z,1.33
2023-09-24T20:24:00.535Z,1.30
2023-09-24T20:26:27.199Z,1.30
2023-09-24T20:28:53.754Z,1.30
2023-09-24T20:31:21.432Z,1.42
2023-09-24T20:36:18.105Z,1.50
2023-09-24T20:38:44.768Z,1.30
2023-09-24T20:41:14.792Z,1.30
2023-09-24T20:43:42.061Z,1.33
2023-09-24T20:46:11.235Z,1.60
2023-09-24T20:48:37.816Z,1.40
2023-09-24T20:51:04.358Z,1.50
2023-09-24T20:53:31.259Z,1.25
2023-09-24T20:55:57.782Z,1.45
2023-09-24T20:58:24.372Z,1.50
2023-09-24T21:00:52.056Z,1.67
2023-09-24T21:03:18.792Z,1.52
2023-09-24T21:05:45.329Z,1.55
2023-09-24T21:08:11.794Z,1.55
2023-09-24T21:10:39.500Z,1.50
2023-09-24T21:13:06.000Z,1.50
2023-09-24T21:15:32.506Z,1.70
2023-09-24T21:17:59.122Z,1.80
2023-09-24T21:20:25.884Z,1.67
2023-09-24T21:22:52.389Z,1.40
2023-09-24T21:25:18.922Z,1.30
2023-09-24T21:27:45.873Z,1.40
2023-09-24T21:30:12.930Z,1.52
2023-09-24T21:32:39.558Z,1.90
2023-09-24T21:35:06.282Z,1.38
2023-09-24T21:37:32.867Z,1.27
2023-09-24T21:39:59.427Z,1.60
2023-09-24T21:42:25.950Z,1.83
2023-09-24T21:44:52.538Z,1.50
2023-09-24T21:47:19.063Z,1.50
2023-09-24T21:49:45.532Z,1.42
2023-09-24T21:52:12.660Z,1.70
2023-09-24T21:54:39.231Z,1.27
2023-09-24T21:57:05.789Z,1.13
2023-09-24T21:59:32.342Z,1.52
2023-09-24T22:01:58.995Z,1.10
2023-09-24T22:04:25.672Z,1.20
2023-09-24T22:06:52.436Z,1.40
2023-09-24T22:09:19.285Z,1.20
2023-09-24T22:11:46.132Z,1.40
2023-09-24T22:14:13.779Z,1.42
2023-09-24T22:16:41.026Z,1.40
2023-09-24T22:19:07.925Z,1.20
2023-09-24T22:21:34.851Z,1.30
2023-09-24T22:24:01.978Z,1.20
2023-09-24T22:26:28.837Z,1.35
2023-09-24T22:28:55.309Z,1.48
2023-09-24T22:31:21.846Z,1.13
2023-09-24T22:33:48.525Z,1.38
2023-09-24T22:36:18.994Z,1.30
2023-09-24T22:38:45.808Z,1.20
2023-09-24T22:41:12.536Z,1.13
2023-09-24T22:43:39.007Z,1.23
2023-09-24T22:46:05.574Z,1.05
2023-09-24T22:48:32.101Z,0.95
2023-09-24T22:50:59.028Z,1.20
2023-09-24T22:53:26.038Z,1.20
2023-09-24T22:55:52.780Z,1.10
2023-09-24T22:58:19.333Z,1.23
2023-09-24T23:00:47.478Z,1.00
2023-09-24T23:03:14.188Z,1.00
2023-09-24T23:05:41.783Z,1.02
2023-09-24T23:08:08.652Z,1.20
2023-09-24T23:10:35.327Z,1.00
2023-09-24T23:13:01.902Z,1.10
2023-09-24T23:15:28.401Z,0.95
2023-09-24T23:17:54.944Z,1.08
2023-09-24T23:20:21.623Z,1.00
2023-09-24T23:22:51.092Z,0.80
2023-09-24T23:25:20.427Z,1.15
2023-09-24T23:27:47.629Z,0.80
2023-09-24T23:30:14.386Z,1.10
2023-09-24T23:32:42.214Z,1.00
2023-09-24T23:35:09.318Z,0.95
2023-09-24T23:37:35.983Z,0.93
2023-09-24T23:40:05.030Z,0.95
2023-09-24T23:42:31.926Z,1.08
2023-09-24T23:44:58.451Z,1.00
2023-09-24T23:47:27.898Z,1.55
2023-09-24T23:49:54.505Z,1.00
2023-09-24T23:52:20.999Z,1.05
2023-09-24T23:54:48.188Z,1.00
2023-09-24T23:57:14.779Z,1.10
2023-09-24T23:59:41.436Z,1.02
